createdAt,value
2022-12-22T00:01:30.936Z,99120.41
2022-12-22T00:04:17.471Z,99127.59
2022-12-22T00:07:03.717Z,99133.75
2022-12-22T00:09:50.716Z,99129.03
2022-12-22T00:12:38.180Z,99138.94
2022-12-22T00:15:25.664Z,99127.84
2022-12-22T00:18:11.537Z,99126.53
2022-12-22T00:20:57.719Z,99128.81
2022-12-22T00:23:43.653Z,99136.72
2022-12-22T00:26:30.012Z,99125.84
2022-12-22T00:29:16.085Z,99122.31
2022-12-22T00:32:02.843Z,99123.00
2022-12-22T00:34:56.649Z,99120.41
2022-12-22T00:37:51.533Z,99118.13
2022-12-22T00:40:40.662Z,99102.31
2022-12-22T00:43:26.571Z,99116.03
2022-12-22T00:46:13.194Z,99122.28
2022-12-22T00:49:01.941Z,99115.31
2022-12-22T00:51:49.403Z,99116.75
2022-12-22T00:54:37.075Z,99108.84
2022-12-22T00:57:23.440Z,99116.50
2022-12-22T01:00:17.428Z,99113.78
2022-12-22T01:03:03.679Z,99108.47
2022-12-22T01:05:50.352Z,99109.06
2022-12-22T01:08:36.748Z,99100.53
2022-12-22T01:11:23.036Z,99097.78
2022-12-22T01:14:09.015Z,99099.56
2022-12-22T01:16:54.901Z,99100.63
2022-12-22T01:19:41.144Z,99096.63
2022-12-22T01:22:31.207Z,99088.81
2022-12-22T01:25:17.053Z,99080.53
2022-12-22T01:28:03.417Z,99069.16
2022-12-22T01:30:49.770Z,99077.69
2022-12-22T01:33:35.574Z,99077.84
2022-12-22T01:36:21.954Z,99071.81
2022-12-22T01:39:07.792Z,99064.34
2022-12-22T01:41:54.087Z,99068.38
2022-12-22T01:44:39.790Z,99057.72
2022-12-22T01:47:47.665Z,99069.78
2022-12-22T01:50:37.655Z,99067.75
2022-12-22T01:53:27.681Z,99073.66
2022-12-22T01:56:15.087Z,99070.31
2022-12-22T01:59:04.926Z,99064.97
2022-12-22T02:01:51.734Z,99054.09
2022-12-22T02:04:41.622Z,99058.78
2022-12-22T02:07:55.211Z,99054.13
2022-12-22T02:11:06.082Z,99051.72
2022-12-22T02:13:54.882Z,99047.69
2022-12-22T02:17:05.602Z,99040.63
2022-12-22T02:20:10.872Z,99044.75
2022-12-22T02:23:29.028Z,99048.75
2022-12-22T02:26:34.115Z,99050.06
2022-12-22T02:29:23.153Z,99056.06
2022-12-22T02:32:09.933Z,99059.25
2022-12-22T02:34:56.074Z,99047.78
2022-12-22T02:38:02.644Z,99049.50
2022-12-22T02:41:34.394Z,99040.56
2022-12-22T02:44:51.182Z,99041.28
2022-12-22T02:47:43.241Z,99040.84
2022-12-22T02:50:44.358Z,99051.41
2022-12-22T02:53:33.189Z,99047.25
2022-12-22T02:56:23.076Z,99065.34
2022-12-22T02:59:09.385Z,99056.34
2022-12-22T03:01:57.243Z,99055.50
2022-12-22T03:04:43.118Z,99055.31
2022-12-22T03:07:29.473Z,99059.16
2022-12-22T03:10:16.591Z,99045.81
2022-12-22T03:13:02.994Z,99050.06
2022-12-22T03:15:48.878Z,99046.09
2022-12-22T03:18:34.876Z,99042.66
2022-12-22T03:21:20.940Z,99040.63
2022-12-22T03:24:06.882Z,99037.22
2022-12-22T03:26:34.491Z,99036.50
2022-12-22T03:29:01.989Z,99028.09
2022-12-22T03:31:29.594Z,99023.97
2022-12-22T03:33:57.140Z,99017.50
2022-12-22T03:36:24.919Z,99019.22
2022-12-22T03:38:52.517Z,99005.47
2022-12-22T03:41:38.661Z,99011.50
2022-12-22T03:44:24.599Z,99009.25
2022-12-22T03:46:52.252Z,99007.03
2022-12-22T03:49:20.080Z,99005.94
2022-12-22T03:51:49.576Z,99011.41
2022-12-22T03:54:27.007Z,99016.09
2022-12-22T03:56:54.678Z,99020.63
2022-12-22T03:59:22.352Z,99021.97
2022-12-22T04:01:53.287Z,99027.03
2022-12-22T04:04:23.903Z,99033.78
2022-12-22T04:06:52.810Z,99035.50
2022-12-22T04:09:22.243Z,99046.50
2022-12-22T04:12:08.078Z,99046.13
2022-12-22T04:14:36.066Z,99042.34
2022-12-22T04:17:04.948Z,99041.19
2022-12-22T04:19:33.360Z,99038.94
2022-12-22T04:22:01.669Z,99048.28
2022-12-22T04:24:29.208Z,99045.81
2022-12-22T04:26:56.826Z,99040.03
2022-12-22T04:29:24.520Z,99050.53
2022-12-22T04:31:52.104Z,99038.13
2022-12-22T04:34:19.642Z,99038.09
2022-12-22T04:36:47.180Z,99031.97
2022-12-22T04:39:14.744Z,99029.13
2022-12-22T04:41:42.324Z,99032.47
2022-12-22T04:44:09.842Z,99035.66
2022-12-22T04:46:37.386Z,99021.31
2022-12-22T04:49:05.051Z,99031.94
2022-12-22T04:51:32.557Z,99022.25
2022-12-22T04:54:00.220Z,99012.69
2022-12-22T04:56:27.748Z,99012.22
2022-12-22T04:58:55.293Z,99017.91
2022-12-22T05:01:24.458Z,99014.34
2022-12-22T05:03:52.133Z,99014.34
2022-12-22T05:06:19.960Z,99013.75
2022-12-22T05:08:47.452Z,99016.47
2022-12-22T05:11:15.088Z,99015.91
2022-12-22T05:13:42.708Z,99014.25
2022-12-22T05:16:12.874Z,99007.41
2022-12-22T05:18:42.318Z,99006.81
2022-12-22T05:21:15.709Z,99019.22
2022-12-22T05:23:44.051Z,99018.63
2022-12-22T05:26:12.413Z,99020.16
2022-12-22T05:28:41.038Z,99026.44
2022-12-22T05:31:16.604Z,99027.84
2022-12-22T05:33:44.667Z,99012.81
2022-12-22T05:36:12.271Z,99013.28
2022-12-22T05:38:40.377Z,99004.53
2022-12-22T05:41:08.528Z,99003.00
2022-12-22T05:43:36.569Z,98995.19
2022-12-22T05:46:09.983Z,99004.63
2022-12-22T05:48:39.870Z,99004.53
2022-12-22T05:51:09.961Z,99007.63
2022-12-22T05:53:38.635Z,99002.88
2022-12-22T05:56:07.420Z,99016.47
2022-12-22T05:58:37.214Z,99011.50
2022-12-22T06:01:05.467Z,99016.50
2022-12-22T06:03:33.107Z,99017.31
2022-12-22T06:06:00.813Z,99016.84
2022-12-22T06:08:28.649Z,99026.66
2022-12-22T06:10:58.404Z,99016.63
2022-12-22T06:13:26.477Z,99014.16
2022-12-22T06:15:54.179Z,99011.19
2022-12-22T06:18:22.895Z,99010.38
2022-12-22T06:20:53.584Z,99006.00
2022-12-22T06:23:22.580Z,99010.59
2022-12-22T06:25:55.185Z,99006.47
2022-12-22T06:28:22.927Z,99012.16
2022-12-22T06:30:50.529Z,99023.25
2022-12-22T06:33:18.120Z,99023.47
2022-12-22T06:35:50.900Z,99036.59
2022-12-22T06:38:24.912Z,99039.06
2022-12-22T06:40:52.448Z,99043.69
2022-12-22T06:43:19.886Z,99050.66
2022-12-22T06:45:47.442Z,99045.94
2022-12-22T06:48:15.102Z,99050.78
2022-12-22T06:50:42.852Z,99043.69
2022-12-22T06:53:11.260Z,99045.09
2022-12-22T06:55:39.035Z,99042.25
2022-12-22T06:58:07.031Z,99049.13
2022-12-22T07:00:34.939Z,99044.63
2022-12-22T07:03:02.852Z,99041.78
2022-12-22T07:05:32.043Z,99033.16
2022-12-22T07:08:05.894Z,99034.59
2022-12-22T07:10:54.916Z,99034.69
2022-12-22T07:13:24.215Z,99037.28
2022-12-22T07:16:00.255Z,99037.06
2022-12-22T07:18:34.279Z,99027.63
2022-12-22T07:21:03.400Z,99037.06
2022-12-22T07:23:31.354Z,99042.25
2022-12-22T07:25:59.125Z,99035.88
2022-12-22T07:28:26.929Z,99031.72
2022-12-22T07:30:55.150Z,99027.25
2022-12-22T07:33:23.463Z,99034.22
2022-12-22T07:36:05.351Z,99037.63
2022-12-22T07:38:39.336Z,99032.53
2022-12-22T07:41:28.565Z,99043.44
2022-12-22T07:43:58.834Z,99046.84
2022-12-22T07:46:28.619Z,99059.84
2022-12-22T07:49:15.374Z,99055.47
2022-12-22T07:51:43.998Z,99060.88
2022-12-22T07:54:14.344Z,99047.78
2022-12-22T07:56:42.681Z,99048.63
2022-12-22T07:59:10.783Z,99048.09
2022-12-22T08:01:39.977Z,99042.41
2022-12-22T08:04:11.973Z,99053.44
2022-12-22T08:06:39.963Z,99046.16
2022-12-22T08:09:09.524Z,99045.06
2022-12-22T08:11:36.986Z,99048.94
2022-12-22T08:14:04.775Z,99050.25
2022-12-22T08:16:32.382Z,99047.75
2022-12-22T08:19:00.136Z,99048.88
2022-12-22T08:21:27.691Z,99034.34
2022-12-22T08:23:55.457Z,99037.66
2022-12-22T08:26:36.588Z,99026.03
2022-12-22T08:29:16.393Z,99038.16
2022-12-22T08:31:44.697Z,99027.56
2022-12-22T08:34:16.409Z,99032.75
2022-12-22T08:36:50.916Z,99037.19
2022-12-22T08:39:20.981Z,99041.81
2022-12-22T08:41:51.645Z,99046.03
2022-12-22T08:44:30.070Z,99050.84
2022-12-22T08:46:59.090Z,99054.84
2022-12-22T08:49:26.928Z,99057.91
2022-12-22T08:51:54.776Z,99065.56
2022-12-22T08:54:23.057Z,99056.53
2022-12-22T08:56:51.094Z,99055.25
2022-12-22T08:59:19.185Z,99051.44
2022-12-22T09:01:50.726Z,99060.53
2022-12-22T09:04:21.135Z,99053.16
2022-12-22T09:06:51.383Z,99036.22
2022-12-22T09:09:19.562Z,99031.75
2022-12-22T09:11:47.357Z,99030.66
2022-12-22T09:14:15.400Z,99028.41
2022-12-22T09:16:42.995Z,99022.53
2022-12-22T09:19:10.737Z,99013.72
2022-12-22T09:21:38.481Z,99000.41
2022-12-22T09:24:07.613Z,99007.16
2022-12-22T09:26:35.325Z,99009.91
2022-12-22T09:29:04.266Z,99010.81
2022-12-22T09:31:32.888Z,99004.69
2022-12-22T09:34:01.039Z,99007.41
2022-12-22T09:36:31.738Z,99002.84
2022-12-22T09:39:04.554Z,99004.38
2022-12-22T09:41:50.850Z,99005.00
2022-12-22T09:44:30.292Z,99010.50
2022-12-22T09:47:01.767Z,98999.06
2022-12-22T09:49:30.133Z,99002.31
2022-12-22T09:52:02.580Z,98998.94
2022-12-22T09:54:30.842Z,98987.69
2022-12-22T09:56:58.677Z,98983.69
2022-12-22T09:59:28.449Z,98982.97
2022-12-22T10:01:59.820Z,98976.91
2022-12-22T10:04:36.536Z,98976.59
2022-12-22T10:07:03.911Z,98973.69
2022-12-22T10:09:50.674Z,98972.22
2022-12-22T10:12:25.344Z,98979.22
2022-12-22T10:14:54.456Z,98963.19
2022-12-22T10:17:28.081Z,98955.56
2022-12-22T10:20:21.709Z,98955.03
2022-12-22T10:22:55.689Z,98950.38
2022-12-22T10:26:00.397Z,98957.59
2022-12-22T10:28:31.930Z,98947.84
2022-12-22T10:31:31.275Z,98945.81
2022-12-22T10:34:18.349Z,98947.69
2022-12-22T10:36:50.773Z,98932.69
2022-12-22T10:39:26.077Z,98931.34
2022-12-22T10:41:56.412Z,98928.31
2022-12-22T10:44:28.279Z,98925.63
2022-12-22T10:47:24.180Z,98915.66
2022-12-22T10:52:32.253Z,98934.88
2022-12-22T10:55:20.445Z,98931.69
2022-12-22T10:57:49.544Z,98929.78
2022-12-22T11:00:27.158Z,98933.59
2022-12-22T11:02:58.013Z,98924.81
2022-12-22T11:05:26.345Z,98926.94
2022-12-22T11:07:55.238Z,98915.41
2022-12-22T11:10:41.530Z,98923.69
2022-12-22T11:13:36.961Z,98920.88
2022-12-22T11:16:17.727Z,98925.41
2022-12-22T11:19:03.525Z,98925.91
2022-12-22T11:22:18.758Z,98920.50
2022-12-22T11:24:48.978Z,98913.94
2022-12-22T11:27:45.779Z,98917.47
2022-12-22T11:30:20.917Z,98905.94
2022-12-22T11:33:07.367Z,98912.66
2022-12-22T11:35:56.644Z,98911.97
2022-12-22T11:38:24.134Z,98914.38
2022-12-22T11:41:04.571Z,98925.31
2022-12-22T11:43:46.949Z,98938.47
2022-12-22T11:46:25.607Z,98929.81
2022-12-22T11:48:55.875Z,98930.41
2022-12-22T11:52:01.090Z,98928.50
2022-12-22T11:54:40.195Z,98930.88
2022-12-22T11:57:13.826Z,98939.97
2022-12-22T12:00:02.729Z,98922.88
2022-12-22T12:03:16.796Z,98926.28
2022-12-22T12:05:59.422Z,98922.13
2022-12-22T12:08:42.676Z,98914.13
2022-12-22T12:11:25.537Z,98909.31
2022-12-22T12:14:05.510Z,98901.06
2022-12-22T12:16:39.275Z,98911.00
2022-12-22T12:19:24.763Z,98899.03
2022-12-22T12:22:38.584Z,98896.84
2022-12-22T12:25:40.067Z,98904.19
2022-12-22T12:28:26.395Z,98917.94
2022-12-22T12:30:58.027Z,98936.22
2022-12-22T12:33:46.815Z,98942.13
2022-12-22T12:36:16.970Z,98941.81
2022-12-22T12:39:08.916Z,98941.34
2022-12-22T12:41:48.005Z,98936.28
2022-12-22T12:44:19.082Z,98938.63
2022-12-22T12:46:57.201Z,98941.78
2022-12-22T12:49:36.744Z,98931.75
2022-12-22T12:52:14.116Z,98926.09
2022-12-22T12:54:43.698Z,98926.38
2022-12-22T12:57:46.393Z,98928.59
2022-12-22T13:00:44.990Z,98926.97
2022-12-22T13:03:52.955Z,98924.91
2022-12-22T13:06:49.358Z,98917.44
2022-12-22T13:09:49.754Z,98918.41
2022-12-22T13:12:49.111Z,98907.47
2022-12-22T13:15:37.694Z,98904.91
2022-12-22T13:18:34.118Z,98894.03
2022-12-22T13:24:28.987Z,98896.28
2022-12-22T13:27:03.621Z,98896.91
2022-12-22T13:29:41.870Z,98889.47
2022-12-22T13:32:33.353Z,98877.72
2022-12-22T13:37:59.681Z,98875.19
2022-12-22T13:40:40.812Z,98857.19
2022-12-22T13:43:17.983Z,98855.16
2022-12-22T13:45:48.517Z,98859.84
2022-12-22T13:48:24.692Z,98858.16
2022-12-22T13:51:01.555Z,98848.41
2022-12-22T13:56:46.853Z,98852.00
2022-12-22T13:59:27.757Z,98847.34
2022-12-22T14:02:16.199Z,98853.88
2022-12-22T14:05:10.870Z,98847.84
2022-12-22T14:07:38.561Z,98839.34
2022-12-22T14:10:07.486Z,98840.03
2022-12-22T14:12:41.980Z,98853.72
2022-12-22T14:15:18.010Z,98846.59
2022-12-22T14:17:52.292Z,98853.47
2022-12-22T14:20:29.296Z,98856.38
2022-12-22T14:23:05.338Z,98856.84
2022-12-22T14:25:38.011Z,98881.78
2022-12-22T14:28:12.041Z,98893.00
2022-12-22T14:30:45.074Z,98898.78
2022-12-22T14:33:27.954Z,98915.97
2022-12-22T14:36:04.661Z,98913.66
2022-12-22T14:38:40.848Z,98905.91
2022-12-22T14:41:37.699Z,98915.31
2022-12-22T14:44:05.508Z,98908.88
2022-12-22T14:46:38.545Z,98906.84
2022-12-22T14:49:16.697Z,98906.28
2022-12-22T14:51:59.079Z,98904.94
2022-12-22T14:54:29.100Z,98905.47
2022-12-22T14:57:08.497Z,98905.88
2022-12-22T14:59:59.237Z,98897.28
2022-12-22T15:02:39.009Z,98899.28
2022-12-22T15:05:28.466Z,98888.44
2022-12-22T15:08:07.229Z,98901.47
2022-12-22T15:10:43.337Z,98906.38
2022-12-22T15:13:13.401Z,98897.31
2022-12-22T15:15:40.898Z,98898.69
2022-12-22T15:18:14.257Z,98902.00
2022-12-22T15:20:42.629Z,98894.56
2022-12-22T15:23:17.076Z,98886.75
2022-12-22T15:25:45.682Z,98891.13
2022-12-22T15:28:13.403Z,98880.50
2022-12-22T15:30:41.537Z,98889.81
2022-12-22T15:33:14.979Z,98880.81
2022-12-22T15:35:44.147Z,98870.38
2022-12-22T15:38:20.672Z,98862.81
2022-12-22T15:40:49.176Z,98851.41
2022-12-22T15:43:53.548Z,98842.09
2022-12-22T15:46:06.208Z,98838.63
2022-12-22T15:48:36.288Z,98847.00
2022-12-22T15:51:07.664Z,98853.03
2022-12-22T15:53:36.877Z,98848.00
2022-12-22T15:56:04.927Z,98850.56
2022-12-22T15:58:36.180Z,98859.78
2022-12-22T16:01:04.151Z,98865.91
2022-12-22T16:03:32.028Z,98866.50
2022-12-22T16:06:00.744Z,98860.69
2022-12-22T16:08:37.796Z,98853.03
2022-12-22T16:11:07.491Z,98859.88
2022-12-22T16:13:37.007Z,98851.66
2022-12-22T16:16:05.154Z,98860.16
2022-12-22T16:18:32.943Z,98855.47
2022-12-22T16:21:07.953Z,98867.09
2022-12-22T16:23:36.809Z,98890.50
2022-12-22T16:26:05.182Z,98890.59
2022-12-22T16:28:33.340Z,98895.25
2022-12-22T16:31:01.419Z,98897.28
2022-12-22T16:33:29.180Z,98893.09
2022-12-22T16:35:56.685Z,98901.38
2022-12-22T16:38:24.229Z,98901.47
2022-12-22T16:40:53.437Z,98901.94
2022-12-22T16:46:15.068Z,98895.22
2022-12-22T16:48:49.747Z,98900.72
2022-12-22T16:51:38.805Z,98892.13
2022-12-22T16:54:06.227Z,98901.16
2022-12-22T16:56:34.916Z,98893.47
2022-12-22T16:59:04.652Z,98900.06
2022-12-22T17:01:40.172Z,98892.94
2022-12-22T17:04:12.161Z,98888.72
2022-12-22T17:06:40.205Z,98885.00
2022-12-22T17:09:15.970Z,98888.84
2022-12-22T17:11:46.189Z,98884.88
2022-12-22T17:14:37.720Z,98878.75
2022-12-22T17:17:05.287Z,98873.41
2022-12-22T17:19:32.831Z,98871.69
2022-12-22T17:22:00.953Z,98865.56
2022-12-22T17:24:29.040Z,98865.97
2022-12-22T17:27:01.087Z,98865.16
2022-12-22T17:29:30.024Z,98872.25
2022-12-22T17:31:57.476Z,98874.44
2022-12-22T17:34:25.038Z,98882.00
2022-12-22T17:36:52.640Z,98864.34
2022-12-22T17:39:21.999Z,98868.00
2022-12-22T17:41:56.433Z,98864.91
2022-12-22T17:44:26.743Z,98871.75
2022-12-22T17:46:54.497Z,98867.44
2022-12-22T17:49:22.781Z,98875.56
2022-12-22T17:51:50.629Z,98872.66
2022-12-22T17:54:23.775Z,98877.63
2022-12-22T17:56:54.001Z,98878.66
2022-12-22T17:59:21.479Z,98878.09
2022-12-22T18:01:49.225Z,98877.69
2022-12-22T18:04:16.969Z,98885.00
2022-12-22T18:06:44.625Z,98884.31
2022-12-22T18:09:20.902Z,98881.22
2022-12-22T18:11:50.163Z,98897.41
2022-12-22T18:14:19.460Z,98894.66
2022-12-22T18:16:47.055Z,98888.13
2022-12-22T18:19:14.668Z,98887.94
2022-12-22T18:21:43.926Z,98891.97
2022-12-22T18:24:19.241Z,98890.31
2022-12-22T18:26:47.532Z,98892.22
2022-12-22T18:29:16.114Z,98886.75
2022-12-22T18:31:44.284Z,98876.16
2022-12-22T18:34:12.540Z,98871.09
2022-12-22T18:36:42.601Z,98854.94
2022-12-22T18:39:18.991Z,98847.69
2022-12-22T18:41:46.929Z,98842.59
2022-12-22T18:44:18.654Z,98837.25
2022-12-22T18:46:46.861Z,98833.53
2022-12-22T18:49:15.490Z,98832.19
2022-12-22T18:51:44.730Z,98829.69
2022-12-22T18:54:27.270Z,98830.09
2022-12-22T18:56:55.739Z,98824.19
2022-12-22T18:59:26.008Z,98814.56
2022-12-22T19:02:01.991Z,98812.78
2022-12-22T19:04:29.898Z,98809.81
2022-12-22T19:06:57.778Z,98810.34
2022-12-22T19:09:26.996Z,98818.56
2022-12-22T19:11:54.550Z,98812.13
2022-12-22T19:14:22.643Z,98803.63
2022-12-22T19:16:50.215Z,98801.03
2022-12-22T19:19:19.332Z,98806.22
2022-12-22T19:21:48.704Z,98792.09
2022-12-22T19:24:16.331Z,98794.03
2022-12-22T19:26:43.868Z,98794.59
2022-12-22T19:29:14.162Z,98780.72
2022-12-22T19:31:43.601Z,98780.72
2022-12-22T19:34:17.008Z,98787.16
2022-12-22T19:36:44.576Z,98787.28
2022-12-22T19:39:12.162Z,98786.59
2022-12-22T19:41:50.045Z,98783.75
2022-12-22T19:44:19.547Z,98784.81
2022-12-22T19:46:48.526Z,98777.16
2022-12-22T19:49:22.016Z,98786.91
2022-12-22T19:51:49.998Z,98774.56
2022-12-22T19:54:17.661Z,98779.09
2022-12-22T19:56:52.582Z,98772.75
2022-12-22T19:59:38.739Z,98775.78
2022-12-22T20:02:30.243Z,98779.50
2022-12-22T20:04:58.870Z,98775.91
2022-12-22T20:07:29.595Z,98784.31
2022-12-22T20:09:58.966Z,98780.31
2022-12-22T20:12:31.740Z,98787.59
2022-12-22T20:15:00.675Z,98799.41
2022-12-22T20:17:28.263Z,98811.06
2022-12-22T20:19:56.592Z,98798.03
2022-12-22T20:22:24.319Z,98783.09
2022-12-22T20:24:54.472Z,98778.38
2022-12-22T20:27:24.930Z,98773.84
2022-12-22T20:29:58.201Z,98776.31
2022-12-22T20:32:28.247Z,98776.88
2022-12-22T20:34:56.238Z,98766.59
2022-12-22T20:37:29.039Z,98761.91
2022-12-22T20:40:01.278Z,98751.72
2022-12-22T20:42:28.997Z,98747.75
2022-12-22T20:45:03.734Z,98745.00
2022-12-22T20:47:35.791Z,98748.84
2022-12-22T20:50:25.930Z,98761.88
2022-12-22T20:52:54.459Z,98743.75
2022-12-22T20:55:25.484Z,98744.81
2022-12-22T20:57:53.668Z,98753.34
2022-12-22T21:00:26.263Z,98753.63
2022-12-22T21:02:56.909Z,98750.91
2022-12-22T21:05:24.552Z,98746.78
2022-12-22T21:07:52.126Z,98750.44
2022-12-22T21:10:22.452Z,98747.00
2022-12-22T21:12:50.474Z,98742.31
2022-12-22T21:15:24.766Z,98740.66
2022-12-22T21:17:58.213Z,98745.59
2022-12-22T21:20:29.069Z,98765.28
2022-12-22T21:22:56.613Z,98752.19
2022-12-22T21:25:25.651Z,98748.72
2022-12-22T21:27:53.656Z,98746.41
2022-12-22T21:30:25.273Z,98752.06
2022-12-22T21:32:53.596Z,98747.97
2022-12-22T21:35:24.468Z,98752.50
2022-12-22T21:37:52.846Z,98749.78
2022-12-22T21:40:27.690Z,98757.06
2022-12-22T21:42:56.771Z,98746.22
2022-12-22T21:45:30.601Z,98741.94
2022-12-22T21:48:02.196Z,98733.53
2022-12-22T21:50:32.293Z,98735.31
2022-12-22T21:53:00.572Z,98741.22
2022-12-22T21:55:31.027Z,98733.84
2022-12-22T21:57:59.290Z,98731.50
2022-12-22T22:00:28.950Z,98735.34
2022-12-22T22:02:57.174Z,98731.22
2022-12-22T22:05:33.710Z,98725.56
2022-12-22T22:08:03.111Z,98735.31
2022-12-22T22:10:39.038Z,98729.97
2022-12-22T22:13:07.417Z,98732.69
2022-12-22T22:15:35.676Z,98731.97
2022-12-22T22:18:07.312Z,98733.88
2022-12-22T22:20:35.687Z,98739.00
2022-12-22T22:23:03.288Z,98737.59
2022-12-22T22:25:30.856Z,98743.91
2022-12-22T22:28:01.557Z,98741.28
2022-12-22T22:30:29.182Z,98734.97
2022-12-22T22:32:57.012Z,98722.28
2022-12-22T22:35:27.996Z,98723.53
2022-12-22T22:37:56.005Z,98708.28
2022-12-22T22:40:25.250Z,98715.50
2022-12-22T22:42:53.106Z,98729.31
2022-12-22T22:45:23.271Z,98720.56
2022-12-22T22:47:52.467Z,98713.91
2022-12-22T22:50:21.306Z,98709.78
2022-12-22T22:52:49.203Z,98702.72
2022-12-22T22:55:16.709Z,98707.66
2022-12-22T22:57:44.243Z,98708.41
2022-12-22T23:00:16.330Z,98706.63
2022-12-22T23:02:45.082Z,98708.41
2022-12-22T23:05:20.465Z,98705.91
2022-12-22T23:07:50.170Z,98703.81
2022-12-22T23:10:20.060Z,98709.59
2022-12-22T23:12:47.692Z,98702.84
2022-12-22T23:15:15.238Z,98700.94
2022-12-22T23:17:42.809Z,98691.16
2022-12-22T23:20:10.573Z,98693.75
2022-12-22T23:22:39.346Z,98696.06
2022-12-22T23:25:07.133Z,98712.66
2022-12-22T23:27:34.797Z,98701.84
2022-12-22T23:30:02.279Z,98705.09
2022-12-22T23:32:31.039Z,98709.75
2022-12-22T23:34:58.531Z,98714.53
2022-12-22T23:37:26.430Z,98723.91
2022-12-22T23:39:54.603Z,98715.72
2022-12-22T23:42:23.625Z,98721.63
2022-12-22T23:44:51.254Z,98706.41
2022-12-22T23:47:18.695Z,98717.59
2022-12-22T23:49:47.459Z,98718.94
2022-12-22T23:52:14.932Z,98707.38
2022-12-22T23:54:42.535Z,98706.53
2022-12-22T23:57:10.005Z,98702.97
2022-12-22T23:59:37.865Z,98712.44
